sensor_id;sensor_type;location;lat;lon;timestamp;P1;durP1;ratioP1;P2;durP2;ratioP2
66856;SDS011;53766;50.280;19.160;2023-02-11T00:01:12;18.77;;;11.60;;
66856;SDS011;53766;50.280;19.160;2023-02-11T00:03:46;20.60;;;11.50;;
66856;SDS011;53766;50.280;19.160;2023-02-11T00:06:13;21.45;;;11.68;;
66856;SDS011;53766;50.280;19.160;2023-02-11T00:08:41;17.42;;;11.38;;
66856;SDS011;53766;50.280;19.160;2023-02-11T00:11:14;19.05;;;11.70;;
66856;SDS011;53766;50.280;19.160;2023-02-11T00:13:44;20.98;;;12.25;;
66856;SDS011;53766;50.280;19.160;2023-02-11T00:16:13;20.88;;;12.10;;
66856;SDS011;53766;50.280;19.160;2023-02-11T00:18:43;20.55;;;11.75;;
66856;SDS011;53766;50.280;19.160;2023-02-11T00:21:17;28.58;;;11.43;;
66856;SDS011;53766;50.280;19.160;2023-02-11T00:23:52;21.02;;;12.43;;
66856;SDS011;53766;50.280;19.160;2023-02-11T00:26:22;19.90;;;12.07;;
66856;SDS011;53766;50.280;19.160;2023-02-11T00:28:54;18.40;;;11.48;;
66856;SDS011;53766;50.280;19.160;2023-02-11T00:31:23;18.65;;;11.63;;
66856;SDS011;53766;50.280;19.160;2023-02-11T00:33:51;20.27;;;11.75;;
66856;SDS011;53766;50.280;19.160;2023-02-11T00:36:21;19.10;;;11.85;;
66856;SDS011;53766;50.280;19.160;2023-02-11T00:38:53;18.73;;;11.35;;
66856;SDS011;53766;50.280;19.160;2023-02-11T00:41:22;19.35;;;11.60;;
66856;SDS011;53766;50.280;19.160;2023-02-11T00:43:49;18.52;;;11.45;;
66856;SDS011;53766;50.280;19.160;2023-02-11T00:46:17;17.92;;;10.98;;
66856;SDS011;53766;50.280;19.160;2023-02-11T00:48:45;18.75;;;11.75;;
66856;SDS011;53766;50.280;19.160;2023-02-11T00:51:12;21.90;;;12.50;;
66856;SDS011;53766;50.280;19.160;2023-02-11T00:53:40;20.60;;;11.48;;
66856;SDS011;53766;50.280;19.160;2023-02-11T00:56:08;17.85;;;11.45;;
66856;SDS011;53766;50.280;19.160;2023-02-11T00:58:36;18.13;;;11.10;;
66856;SDS011;53766;50.280;19.160;2023-02-11T01:01:03;20.42;;;11.75;;
66856;SDS011;53766;50.280;19.160;2023-02-11T01:03:32;20.70;;;11.68;;
66856;SDS011;53766;50.280;19.160;2023-02-11T01:05:59;18.70;;;11.38;;
66856;SDS011;53766;50.280;19.160;2023-02-11T01:08:27;18.00;;;11.13;;
66856;SDS011;53766;50.280;19.160;2023-02-11T01:13:27;17.85;;;11.32;;
66856;SDS011;53766;50.280;19.160;2023-02-11T01:15:56;17.15;;;11.18;;
66856;SDS011;53766;50.280;19.160;2023-02-11T01:18:24;19.70;;;11.18;;
66856;SDS011;53766;50.280;19.160;2023-02-11T01:20:52;21.20;;;11.80;;
66856;SDS011;53766;50.280;19.160;2023-02-11T01:23:21;18.02;;;11.60;;
66856;SDS011;53766;50.280;19.160;2023-02-11T01:25:48;18.92;;;11.60;;
66856;SDS011;53766;50.280;19.160;2023-02-11T01:28:17;20.77;;;11.73;;
66856;SDS011;53766;50.280;19.160;2023-02-11T01:30:46;19.52;;;11.23;;
66856;SDS011;53766;50.280;19.160;2023-02-11T01:33:14;16.92;;;10.90;;
66856;SDS011;53766;50.280;19.160;2023-02-11T01:35:42;19.90;;;11.50;;
66856;SDS011;53766;50.280;19.160;2023-02-11T01:38:21;18.23;;;11.52;;
66856;SDS011;53766;50.280;19.160;2023-02-11T01:40:54;16.98;;;10.30;;
66856;SDS011;53766;50.280;19.160;2023-02-11T01:43:27;17.30;;;10.90;;
66856;SDS011;53766;50.280;19.160;2023-02-11T01:46:05;20.48;;;11.85;;
66856;SDS011;53766;50.280;19.160;2023-02-11T01:49:11;18.08;;;10.57;;
66856;SDS011;53766;50.280;19.160;2023-02-11T01:54:20;18.20;;;10.98;;
66856;SDS011;53766;50.280;19.160;2023-02-11T01:57:09;19.33;;;10.80;;
66856;SDS011;53766;50.280;19.160;2023-02-11T02:02:19;18.75;;;11.20;;
66856;SDS011;53766;50.280;19.160;2023-02-11T02:04:54;17.73;;;11.07;;
66856;SDS011;53766;50.280;19.160;2023-02-11T02:07:43;19.60;;;10.40;;
66856;SDS011;53766;50.280;19.160;2023-02-11T02:10:18;16.63;;;10.48;;
66856;SDS011;53766;50.280;19.160;2023-02-11T02:12:48;17.55;;;10.60;;
66856;SDS011;53766;50.280;19.160;2023-02-11T02:15:23;17.55;;;10.65;;
66856;SDS011;53766;50.280;19.160;2023-02-11T02:18:08;17.02;;;10.50;;
66856;SDS011;53766;50.280;19.160;2023-02-11T02:23:43;17.23;;;10.73;;
66856;SDS011;53766;50.280;19.160;2023-02-11T02:27:01;18.35;;;10.80;;
66856;SDS011;53766;50.280;19.160;2023-02-11T02:34:55;17.67;;;10.02;;
66856;SDS011;53766;50.280;19.160;2023-02-11T02:37:48;16.48;;;10.75;;
66856;SDS011;53766;50.280;19.160;2023-02-11T02:40:24;18.05;;;10.73;;
66856;SDS011;53766;50.280;19.160;2023-02-11T02:42:57;15.95;;;10.07;;
66856;SDS011;53766;50.280;19.160;2023-02-11T02:45:27;16.30;;;10.25;;
66856;SDS011;53766;50.280;19.160;2023-02-11T02:47:54;16.42;;;10.18;;
66856;SDS011;53766;50.280;19.160;2023-02-11T02:50:23;15.75;;;10.23;;
66856;SDS011;53766;50.280;19.160;2023-02-11T02:56:13;15.77;;;9.90;;
66856;SDS011;53766;50.280;19.160;2023-02-11T02:59:35;15.23;;;9.68;;
66856;SDS011;53766;50.280;19.160;2023-02-11T03:04:52;17.38;;;10.82;;
66856;SDS011;53766;50.280;19.160;2023-02-11T03:07:36;17.55;;;10.50;;
66856;SDS011;53766;50.280;19.160;2023-02-11T03:10:15;15.88;;;10.45;;
66856;SDS011;53766;50.280;19.160;2023-02-11T03:12:45;16.60;;;10.07;;
66856;SDS011;53766;50.280;19.160;2023-02-11T03:15:14;15.40;;;9.52;;
66856;SDS011;53766;50.280;19.160;2023-02-11T03:17:46;18.45;;;10.50;;
66856;SDS011;53766;50.280;19.160;2023-02-11T03:20:16;15.85;;;9.60;;
66856;SDS011;53766;50.280;19.160;2023-02-11T03:23:35;14.30;;;9.23;;
66856;SDS011;53766;50.280;19.160;2023-02-11T03:25:35;15.85;;;9.95;;
66856;SDS011;53766;50.280;19.160;2023-02-11T03:28:08;15.65;;;9.55;;
66856;SDS011;53766;50.280;19.160;2023-02-11T03:30:50;15.98;;;9.63;;
66856;SDS011;53766;50.280;19.160;2023-02-11T03:33:24;15.43;;;10.07;;
66856;SDS011;53766;50.280;19.160;2023-02-11T03:36:02;15.20;;;9.90;;
66856;SDS011;53766;50.280;19.160;2023-02-11T03:38:38;15.63;;;10.13;;
66856;SDS011;53766;50.280;19.160;2023-02-11T03:41:13;17.85;;;10.05;;
66856;SDS011;53766;50.280;19.160;2023-02-11T03:43:44;16.17;;;10.25;;
66856;SDS011;53766;50.280;19.160;2023-02-11T03:46:17;17.00;;;9.85;;
66856;SDS011;53766;50.280;19.160;2023-02-11T03:48:48;16.48;;;9.45;;
66856;SDS011;53766;50.280;19.160;2023-02-11T03:51:18;15.45;;;9.55;;
66856;SDS011;53766;50.280;19.160;2023-02-11T03:53:47;15.93;;;9.50;;
66856;SDS011;53766;50.280;19.160;2023-02-11T03:56:20;14.70;;;9.65;;
66856;SDS011;53766;50.280;19.160;2023-02-11T03:58:49;15.93;;;9.63;;
66856;SDS011;53766;50.280;19.160;2023-02-11T04:01:17;16.50;;;9.98;;
66856;SDS011;53766;50.280;19.160;2023-02-11T04:03:44;16.10;;;9.45;;
66856;SDS011;53766;50.280;19.160;2023-02-11T04:06:11;14.68;;;9.00;;
66856;SDS011;53766;50.280;19.160;2023-02-11T04:08:39;16.02;;;9.95;;
66856;SDS011;53766;50.280;19.160;2023-02-11T04:11:07;16.67;;;9.98;;
66856;SDS011;53766;50.280;19.160;2023-02-11T04:13:34;15.60;;;9.73;;
66856;SDS011;53766;50.280;19.160;2023-02-11T04:16:02;14.80;;;9.43;;
66856;SDS011;53766;50.280;19.160;2023-02-11T04:18:29;14.68;;;9.23;;
66856;SDS011;53766;50.280;19.160;2023-02-11T04:20:56;15.05;;;9.63;;
66856;SDS011;53766;50.280;19.160;2023-02-11T04:23:24;16.55;;;9.90;;
66856;SDS011;53766;50.280;19.160;2023-02-11T04:25:51;14.23;;;8.70;;
66856;SDS011;53766;50.280;19.160;2023-02-11T04:28:19;15.90;;;9.63;;
66856;SDS011;53766;50.280;19.160;2023-02-11T04:30:48;14.68;;;9.25;;
66856;SDS011;53766;50.280;19.160;2023-02-11T04:33:16;13.40;;;8.88;;
66856;SDS011;53766;50.280;19.160;2023-02-11T04:35:44;13.27;;;8.43;;
66856;SDS011;53766;50.280;19.160;2023-02-11T04:38:12;17.13;;;9.63;;
66856;SDS011;53766;50.280;19.160;2023-02-11T04:40:39;14.60;;;9.50;;
66856;SDS011;53766;50.280;19.160;2023-02-11T04:43:07;14.70;;;9.82;;
66856;SDS011;53766;50.280;19.160;2023-02-11T04:45:34;15.23;;;8.82;;
66856;SDS011;53766;50.280;19.160;2023-02-11T04:48:02;14.93;;;9.30;;
66856;SDS011;53766;50.280;19.160;2023-02-11T04:50:30;15.13;;;9.68;;
66856;SDS011;53766;50.280;19.160;2023-02-11T04:52:57;14.18;;;9.10;;
66856;SDS011;53766;50.280;19.160;2023-02-11T04:55:24;14.40;;;9.60;;
66856;SDS011;53766;50.280;19.160;2023-02-11T04:57:52;15.00;;;9.48;;
66856;SDS011;53766;50.280;19.160;2023-02-11T05:00:21;15.50;;;9.00;;
66856;SDS011;53766;50.280;19.160;2023-02-11T05:02:48;13.50;;;9.02;;
66856;SDS011;53766;50.280;19.160;2023-02-11T05:05:16;15.15;;;9.40;;
66856;SDS011;53766;50.280;19.160;2023-02-11T05:07:43;14.48;;;9.43;;
66856;SDS011;53766;50.280;19.160;2023-02-11T05:10:10;15.75;;;9.02;;
66856;SDS011;53766;50.280;19.160;2023-02-11T05:12:38;16.27;;;9.35;;
66856;SDS011;53766;50.280;19.160;2023-02-11T05:15:05;15.98;;;8.77;;
66856;SDS011;53766;50.280;19.160;2023-02-11T05:17:33;12.77;;;8.48;;
66856;SDS011;53766;50.280;19.160;2023-02-11T05:20:00;15.05;;;9.23;;
66856;SDS011;53766;50.280;19.160;2023-02-11T05:22:28;13.70;;;9.85;;
66856;SDS011;53766;50.280;19.160;2023-02-11T05:24:55;14.40;;;9.15;;
66856;SDS011;53766;50.280;19.160;2023-02-11T05:27:22;14.57;;;8.90;;
66856;SDS011;53766;50.280;19.160;2023-02-11T05:29:50;13.45;;;8.93;;
66856;SDS011;53766;50.280;19.160;2023-02-11T05:32:17;15.38;;;8.85;;
66856;SDS011;53766;50.280;19.160;2023-02-11T05:34:45;11.90;;;8.38;;
66856;SDS011;53766;50.280;19.160;2023-02-11T05:37:12;14.07;;;8.90;;
66856;SDS011;53766;50.280;19.160;2023-02-11T05:39:39;12.35;;;8.75;;
66856;SDS011;53766;50.280;19.160;2023-02-11T05:42:07;13.73;;;8.77;;
66856;SDS011;53766;50.280;19.160;2023-02-11T05:44:34;14.63;;;8.98;;
66856;SDS011;53766;50.280;19.160;2023-02-11T05:47:02;13.85;;;8.57;;
66856;SDS011;53766;50.280;19.160;2023-02-11T05:49:29;13.32;;;8.70;;
66856;SDS011;53766;50.280;19.160;2023-02-11T05:51:57;15.30;;;9.02;;
66856;SDS011;53766;50.280;19.160;2023-02-11T05:54:24;13.50;;;8.48;;
66856;SDS011;53766;50.280;19.160;2023-02-11T05:56:52;13.02;;;8.55;;
66856;SDS011;53766;50.280;19.160;2023-02-11T05:59:19;13.45;;;9.00;;
66856;SDS011;53766;50.280;19.160;2023-02-11T06:01:47;14.98;;;9.40;;
66856;SDS011;53766;50.280;19.160;2023-02-11T06:04:14;13.07;;;8.32;;
66856;SDS011;53766;50.280;19.160;2023-02-11T06:06:41;12.48;;;8.30;;
66856;SDS011;53766;50.280;19.160;2023-02-11T06:09:09;14.40;;;8.10;;
66856;SDS011;53766;50.280;19.160;2023-02-11T06:11:37;13.02;;;8.13;;
66856;SDS011;53766;50.280;19.160;2023-02-11T06:14:05;12.85;;;8.77;;
66856;SDS011;53766;50.280;19.160;2023-02-11T06:16:32;13.68;;;8.25;;
66856;SDS011;53766;50.280;19.160;2023-02-11T06:19:00;13.52;;;8.52;;
66856;SDS011;53766;50.280;19.160;2023-02-11T06:21:27;13.13;;;8.85;;
66856;SDS011;53766;50.280;19.160;2023-02-11T06:24:10;12.82;;;8.60;;
66856;SDS011;53766;50.280;19.160;2023-02-11T06:26:38;14.00;;;8.07;;
66856;SDS011;53766;50.280;19.160;2023-02-11T06:29:06;13.25;;;8.50;;
66856;SDS011;53766;50.280;19.160;2023-02-11T06:31:35;12.50;;;7.80;;
66856;SDS011;53766;50.280;19.160;2023-02-11T06:34:03;12.60;;;8.27;;
66856;SDS011;53766;50.280;19.160;2023-02-11T06:36:31;11.40;;;7.85;;
66856;SDS011;53766;50.280;19.160;2023-02-11T06:38:58;13.15;;;8.35;;
66856;SDS011;53766;50.280;19.160;2023-02-11T06:41:26;13.43;;;8.30;;
66856;SDS011;53766;50.280;19.160;2023-02-11T06:43:54;13.80;;;8.57;;
66856;SDS011;53766;50.280;19.160;2023-02-11T06:46:21;12.65;;;8.50;;
66856;SDS011;53766;50.280;19.160;2023-02-11T06:48:49;13.30;;;8.18;;
66856;SDS011;53766;50.280;19.160;2023-02-11T06:51:16;14.32;;;8.35;;
66856;SDS011;53766;50.280;19.160;2023-02-11T06:53:44;14.02;;;8.68;;
66856;SDS011;53766;50.280;19.160;2023-02-11T06:56:17;12.27;;;7.90;;
66856;SDS011;53766;50.280;19.160;2023-02-11T06:58:46;12.85;;;7.93;;
66856;SDS011;53766;50.280;19.160;2023-02-11T07:01:14;16.52;;;8.07;;
66856;SDS011;53766;50.280;19.160;2023-02-11T07:03:43;11.65;;;7.53;;
66856;SDS011;53766;50.280;19.160;2023-02-11T07:06:15;15.23;;;8.82;;
66856;SDS011;53766;50.280;19.160;2023-02-11T07:08:45;11.48;;;7.80;;
66856;SDS011;53766;50.280;19.160;2023-02-11T07:11:14;12.90;;;8.30;;
66856;SDS011;53766;50.280;19.160;2023-02-11T07:13:44;17.08;;;7.72;;
66856;SDS011;53766;50.280;19.160;2023-02-11T07:16:12;14.60;;;8.30;;
66856;SDS011;53766;50.280;19.160;2023-02-11T07:18:41;14.55;;;8.38;;
66856;SDS011;53766;50.280;19.160;2023-02-11T07:21:13;14.77;;;8.55;;
66856;SDS011;53766;50.280;19.160;2023-02-11T07:23:42;13.60;;;8.27;;
66856;SDS011;53766;50.280;19.160;2023-02-11T07:26:11;13.23;;;8.10;;
66856;SDS011;53766;50.280;19.160;2023-02-11T07:28:41;14.05;;;8.23;;
66856;SDS011;53766;50.280;19.160;2023-02-11T07:31:10;13.88;;;8.00;;
66856;SDS011;53766;50.280;19.160;2023-02-11T07:33:39;15.88;;;8.10;;
66856;SDS011;53766;50.280;19.160;2023-02-11T07:36:08;18.13;;;8.27;;
66856;SDS011;53766;50.280;19.160;2023-02-11T07:38:36;16.50;;;8.60;;
66856;SDS011;53766;50.280;19.160;2023-02-11T07:41:05;16.65;;;8.20;;
66856;SDS011;53766;50.280;19.160;2023-02-11T07:43:35;16.65;;;8.40;;
66856;SDS011;53766;50.280;19.160;2023-02-11T07:46:08;16.67;;;8.25;;
66856;SDS011;53766;50.280;19.160;2023-02-11T07:48:37;13.48;;;8.05;;
66856;SDS011;53766;50.280;19.160;2023-02-11T07:51:09;12.68;;;7.95;;
66856;SDS011;53766;50.280;19.160;2023-02-11T07:53:38;14.95;;;9.40;;
66856;SDS011;53766;50.280;19.160;2023-02-11T07:56:07;14.77;;;9.40;;
66856;SDS011;53766;50.280;19.160;2023-02-11T07:58:36;18.90;;;9.27;;
66856;SDS011;53766;50.280;19.160;2023-02-11T08:01:04;18.13;;;9.60;;
66856;SDS011;53766;50.280;19.160;2023-02-11T08:03:34;17.38;;;9.02;;
66856;SDS011;53766;50.280;19.160;2023-02-11T08:06:06;15.98;;;8.80;;
66856;SDS011;53766;50.280;19.160;2023-02-11T08:08:35;21.25;;;8.63;;
66856;SDS011;53766;50.280;19.160;2023-02-11T08:11:10;26.60;;;9.63;;
66856;SDS011;53766;50.280;19.160;2023-02-11T08:13:40;20.50;;;8.55;;
66856;SDS011;53766;50.280;19.160;2023-02-11T08:16:08;22.60;;;10.18;;
66856;SDS011;53766;50.280;19.160;2023-02-11T08:18:43;28.38;;;10.15;;
66856;SDS011;53766;50.280;19.160;2023-02-11T08:21:10;21.10;;;10.57;;
66856;SDS011;53766;50.280;19.160;2023-02-11T08:23:39;20.98;;;10.52;;
66856;SDS011;53766;50.280;19.160;2023-02-11T08:26:08;25.20;;;11.93;;
66856;SDS011;53766;50.280;19.160;2023-02-11T08:28:39;26.25;;;11.40;;
66856;SDS011;53766;50.280;19.160;2023-02-11T08:31:08;25.60;;;11.82;;
66856;SDS011;53766;50.280;19.160;2023-02-11T08:33:38;23.40;;;10.88;;
66856;SDS011;53766;50.280;19.160;2023-02-11T08:36:07;23.35;;;10.63;;
66856;SDS011;53766;50.280;19.160;2023-02-11T08:38:36;24.23;;;10.05;;
66856;SDS011;53766;50.280;19.160;2023-02-11T08:41:04;21.98;;;10.75;;
66856;SDS011;53766;50.280;19.160;2023-02-11T08:43:32;26.17;;;10.25;;
66856;SDS011;53766;50.280;19.160;2023-02-11T08:46:00;27.30;;;10.30;;
66856;SDS011;53766;50.280;19.160;2023-02-11T08:48:28;23.95;;;9.63;;
66856;SDS011;53766;50.280;19.160;2023-02-11T08:50:56;21.60;;;10.25;;
66856;SDS011;53766;50.280;19.160;2023-02-11T08:53:23;29.40;;;9.98;;
66856;SDS011;53766;50.280;19.160;2023-02-11T08:55:51;18.83;;;9.38;;
66856;SDS011;53766;50.280;19.160;2023-02-11T08:58:21;25.02;;;9.15;;
66856;SDS011;53766;50.280;19.160;2023-02-11T09:00:48;15.10;;;9.02;;
66856;SDS011;53766;50.280;19.160;2023-02-11T09:03:17;20.52;;;8.82;;
66856;SDS011;53766;50.280;19.160;2023-02-11T09:05:45;17.02;;;9.00;;
66856;SDS011;53766;50.280;19.160;2023-02-11T09:08:14;25.05;;;8.80;;
66856;SDS011;53766;50.280;19.160;2023-02-11T09:10:42;16.33;;;8.23;;
66856;SDS011;53766;50.280;19.160;2023-02-11T09:13:10;17.08;;;8.52;;
66856;SDS011;53766;50.280;19.160;2023-02-11T09:15:38;21.35;;;8.50;;
66856;SDS011;53766;50.280;19.160;2023-02-11T09:18:06;18.08;;;8.13;;
66856;SDS011;53766;50.280;19.160;2023-02-11T09:20:33;16.20;;;8.52;;
66856;SDS011;53766;50.280;19.160;2023-02-11T09:23:01;17.40;;;7.60;;
66856;SDS011;53766;50.280;19.160;2023-02-11T09:25:29;20.65;;;8.00;;
66856;SDS011;53766;50.280;19.160;2023-02-11T09:27:56;15.88;;;8.60;;
66856;SDS011;53766;50.280;19.160;2023-02-11T09:30:24;19.63;;;8.43;;
66856;SDS011;53766;50.280;19.160;2023-02-11T09:32:52;19.48;;;8.00;;
66856;SDS011;53766;50.280;19.160;2023-02-11T09:35:19;16.48;;;7.47;;
66856;SDS011;53766;50.280;19.160;2023-02-11T09:37:46;17.40;;;7.20;;
66856;SDS011;53766;50.280;19.160;2023-02-11T09:40:14;15.52;;;7.47;;
66856;SDS011;53766;50.280;19.160;2023-02-11T09:42:50;22.55;;;7.90;;
66856;SDS011;53766;50.280;19.160;2023-02-11T09:45:29;14.52;;;7.50;;
66856;SDS011;53766;50.280;19.160;2023-02-11T09:47:59;19.85;;;7.97;;
66856;SDS011;53766;50.280;19.160;2023-02-11T09:50:38;15.98;;;6.90;;
66856;SDS011;53766;50.280;19.160;2023-02-11T09:53:25;12.77;;;7.53;;
66856;SDS011;53766;50.280;19.160;2023-02-11T09:55:59;17.80;;;6.72;;
66856;SDS011;53766;50.280;19.160;2023-02-11T09:58:33;14.38;;;7.38;;
66856;SDS011;53766;50.280;19.160;2023-02-11T10:15:05;14.40;;;7.30;;
66856;SDS011;53766;50.280;19.160;2023-02-11T10:22:57;11.10;;;6.22;;
66856;SDS011;53766;50.280;19.160;2023-02-11T10:25:29;18.33;;;6.78;;
66856;SDS011;53766;50.280;19.160;2023-02-11T10:28:11;13.95;;;6.93;;
66856;SDS011;53766;50.280;19.160;2023-02-11T10:33:26;10.63;;;6.38;;
66856;SDS011;53766;50.280;19.160;2023-02-11T10:36:00;12.43;;;6.45;;
66856;SDS011;53766;50.280;19.160;2023-02-11T10:38:29;10.48;;;5.88;;
66856;SDS011;53766;50.280;19.160;2023-02-11T10:40:56;12.45;;;6.93;;
66856;SDS011;53766;50.280;19.160;2023-02-11T10:43:25;16.05;;;7.10;;
66856;SDS011;53766;50.280;19.160;2023-02-11T10:45:55;18.92;;;7.38;;
66856;SDS011;53766;50.280;19.160;2023-02-11T10:56:32;15.25;;;6.95;;
66856;SDS011;53766;50.280;19.160;2023-02-11T10:59:25;15.15;;;6.97;;
66856;SDS011;53766;50.280;19.160;2023-02-11T11:07:20;11.50;;;6.90;;
66856;SDS011;53766;50.280;19.160;2023-02-11T11:10:02;14.93;;;6.78;;
66856;SDS011;53766;50.280;19.160;2023-02-11T11:12:51;12.93;;;6.70;;
66856;SDS011;53766;50.280;19.160;2023-02-11T11:15:25;10.48;;;6.82;;
66856;SDS011;53766;50.280;19.160;2023-02-11T11:20:56;12.15;;;6.78;;
66856;SDS011;53766;50.280;19.160;2023-02-11T11:23:26;13.15;;;6.53;;
66856;SDS011;53766;50.280;19.160;2023-02-11T11:25:59;14.35;;;6.32;;
66856;SDS011;53766;50.280;19.160;2023-02-11T11:28:32;11.55;;;6.90;;
66856;SDS011;53766;50.280;19.160;2023-02-11T11:31:11;11.35;;;6.25;;
66856;SDS011;53766;50.280;19.160;2023-02-11T11:34:00;11.05;;;6.32;;
66856;SDS011;53766;50.280;19.160;2023-02-11T11:36:45;13.60;;;7.03;;
66856;SDS011;53766;50.280;19.160;2023-02-11T11:39:21;11.85;;;6.63;;
66856;SDS011;53766;50.280;19.160;2023-02-11T11:44:27;11.60;;;6.28;;
66856;SDS011;53766;50.280;19.160;2023-02-11T11:47:15;12.65;;;6.63;;
66856;SDS011;53766;50.280;19.160;2023-02-11T11:52:34;12.00;;;6.70;;
66856;SDS011;53766;50.280;19.160;2023-02-11T11:55:11;12.55;;;6.63;;
66856;SDS011;53766;50.280;19.160;2023-02-11T11:57:45;11.38;;;6.65;;
66856;SDS011;53766;50.280;19.160;2023-02-11T12:00:16;38.65;;;7.22;;
66856;SDS011;53766;50.280;19.160;2023-02-11T12:11:07;12.75;;;6.30;;
66856;SDS011;53766;50.280;19.160;2023-02-11T12:20:17;16.02;;;6.95;;
66856;SDS011;53766;50.280;19.160;2023-02-11T12:28:43;13.88;;;6.40;;
66856;SDS011;53766;50.280;19.160;2023-02-11T12:57:10;13.27;;;6.82;;
66856;SDS011;53766;50.280;19.160;2023-02-11T12:59:54;16.13;;;7.07;;
66856;SDS011;53766;50.280;19.160;2023-02-11T13:02:38;11.57;;;6.10;;
66856;SDS011;53766;50.280;19.160;2023-02-11T13:11:16;12.00;;;7.20;;
66856;SDS011;53766;50.280;19.160;2023-02-11T13:35:30;10.55;;;6.43;;
66856;SDS011;53766;50.280;19.160;2023-02-11T13:37:58;10.90;;;6.32;;
66856;SDS011;53766;50.280;19.160;2023-02-11T13:43:03;12.70;;;6.70;;
66856;SDS011;53766;50.280;19.160;2023-02-11T13:45:34;12.30;;;6.57;;
66856;SDS011;53766;50.280;19.160;2023-02-11T13:48:44;13.63;;;6.68;;
66856;SDS011;53766;50.280;19.160;2023-02-11T13:53:41;14.38;;;6.97;;
66856;SDS011;53766;50.280;19.160;2023-02-11T13:56:22;13.07;;;6.40;;
66856;SDS011;53766;50.280;19.160;2023-02-11T13:58:55;11.65;;;6.32;;
66856;SDS011;53766;50.280;19.160;2023-02-11T14:01:46;11.63;;;6.53;;
66856;SDS011;53766;50.280;19.160;2023-02-11T14:05:01;10.27;;;6.35;;
66856;SDS011;53766;50.280;19.160;2023-02-11T14:26:49;12.02;;;7.22;;
66856;SDS011;53766;50.280;19.160;2023-02-11T14:37:44;12.75;;;6.50;;
66856;SDS011;53766;50.280;19.160;2023-02-11T14:40:32;15.32;;;7.43;;
66856;SDS011;53766;50.280;19.160;2023-02-11T14:43:13;15.70;;;7.35;;
66856;SDS011;53766;50.280;19.160;2023-02-11T14:45:48;16.20;;;7.57;;
66856;SDS011;53766;50.280;19.160;2023-02-11T14:48:19;18.20;;;7.88;;
66856;SDS011;53766;50.280;19.160;2023-02-11T14:51:05;17.73;;;7.60;;
66856;SDS011;53766;50.280;19.160;2023-02-11T14:53:36;13.32;;;7.50;;
66856;SDS011;53766;50.280;19.160;2023-02-11T14:56:20;18.45;;;7.68;;
66856;SDS011;53766;50.280;19.160;2023-02-11T14:58:52;15.85;;;7.20;;
66856;SDS011;53766;50.280;19.160;2023-02-11T15:01:31;12.40;;;6.32;;
66856;SDS011;53766;50.280;19.160;2023-02-11T15:04:04;17.15;;;6.88;;
66856;SDS011;53766;50.280;19.160;2023-02-11T15:06:39;13.25;;;6.63;;
66856;SDS011;53766;50.280;19.160;2023-02-11T15:09:22;21.98;;;7.00;;
66856;SDS011;53766;50.280;19.160;2023-02-11T15:11:55;13.32;;;6.45;;
66856;SDS011;53766;50.280;19.160;2023-02-11T15:14:25;12.60;;;6.57;;
66856;SDS011;53766;50.280;19.160;2023-02-11T15:16:56;11.90;;;6.30;;
66856;SDS011;53766;50.280;19.160;2023-02-11T15:19:33;12.05;;;6.50;;
66856;SDS011;53766;50.280;19.160;2023-02-11T15:22:03;11.25;;;6.22;;
66856;SDS011;53766;50.280;19.160;2023-02-11T15:24:33;13.40;;;6.55;;
66856;SDS011;53766;50.280;19.160;2023-02-11T15:27:02;14.88;;;6.85;;
66856;SDS011;53766;50.280;19.160;2023-02-11T15:29:45;14.05;;;6.47;;
66856;SDS011;53766;50.280;19.160;2023-02-11T15:32:16;13.32;;;6.38;;
66856;SDS011;53766;50.280;19.160;2023-02-11T15:34:47;16.30;;;6.60;;
66856;SDS011;53766;50.280;19.160;2023-02-11T15:37:20;14.13;;;6.65;;
66856;SDS011;53766;50.280;19.160;2023-02-11T15:39:52;12.75;;;6.30;;
66856;SDS011;53766;50.280;19.160;2023-02-11T15:42:22;14.00;;;6.60;;
66856;SDS011;53766;50.280;19.160;2023-02-11T15:47:41;15.13;;;6.53;;
